This demonstration page uses our WeatherBlox Daily Observations layout. Learn more.

36.17497, -115.13722

Hourly Observations for February 1, 2018

Temp ( °F °C ) Dew Point ( °F °C ) Humidity (%) Winds ( mph kmh ) Pressure ( in mb ) Visibility ( mi km ) Precip ( " mm )
12:53 am 00:53 Clear 50 10 30 -1.1 46 46 NNW 7 11 30.08 1019 10 16.0934 0 0
1:53 am 01:53 Clear 49 9.4 29 -1.7 46 46 WNW 3 6 30.09 1019 10 16.0934 0 0
2:53 am 02:53 Clear 47 8.3 29 -1.7 50 50 NW 3 6 30.1 1019 10 16.0934 0 0
3:53 am 03:53 Clear 46 7.8 29 -1.7 51 51 NW 5 7 30.1 1019 10 16.0934 0 0
4:53 am 04:53 Clear 47 8.3 28 -2.2 48 48 NW 6 9 30.1 1019 10 16.0934 0 0
5:53 am 05:53 Clear 46 7.8 28 -2.2 50 50 WNW 3 6 30.12 1020 10 16.0934 0 0
6:53 am 06:53 Sunny 45 7.2 29 -1.7 54 54 NNW 3 6 30.14 1021 10 16.0934 0 0
7:53 am 07:53 Sunny 50 10 29 -1.7 44 44 Calm 30.16 1021 10 16.0934 0 0
8:53 am 08:53 Sunny 57 13.9 27 -2.8 32 32 NNE 3 6 30.16 1022 10 16.0934 0 0
9:53 am 09:53 Sunny 60 15.6 22 -5.6 23 23 W 5 7 30.17 1022 10 16.0934 0 0
10:53 am 10:53 Sunny 64 17.8 23 -5 21 21 Calm 30.16 1021 10 16.0934 0 0
11:53 am 11:53 Sunny 65 18.3 25 -3.9 22 22 Calm 30.14 1021 10 16.0934 0 0
12:53 pm 12:53 Sunny 68 20 23 -5 18 18 Calm 30.12 1020 10 16.0934 0 0
1:53 pm 13:53 Sunny 69 20.6 22 -5.6 17 17 Calm 30.11 1020 10 16.0934 0 0
2:53 pm 14:53 Sunny 69 20.6 22 -5.6 17 17 Calm 30.11 1020 10 16.0934 0 0
3:53 pm 15:53 Sunny 69 20.6 22 -5.6 17 17 Calm 30.11 1020 10 16.0934 0 0
4:53 pm 16:53 Sunny 67 19.4 23 -5 19 19 E 5 7 30.12 1020 10 16.0934 0 0
5:53 pm 17:53 Clear 65 18.3 24 -4.4 21 21 Calm 30.14 1021 10 16.0934 0 0
6:53 pm 18:53 Clear 59 15 26 -3.3 28 28 NW 5 7 30.16 1021 10 16.0934 0 0
7:53 pm 19:53 Clear 57 13.9 29 -1.7 34 34 NNW 6 9 30.18 1022 10 16.0934 0 0
8:53 pm 20:53 Clear 55 12.8 30 -1.1 38 38 NW 7 11 30.19 1022 10 16.0934 0 0
9:53 pm 21:53 Clear 53 11.7 30 -1.1 41 41 NW 5 7 30.19 1023 10 16.0934 0 0
10:53 pm 22:53 Clear 50 10 30 -1.1 46 46 N 6 9 30.2 1023 10 16.0934 0 0
11:53 pm 23:53 Clear 50 10 29 -1.7 44 44 NW 3 6 30.2 1023 10 16.0934 0 0

Powered by AerisWeather